createdAt,value
2023-01-06T00:00:31.155Z,1.97
2023-01-06T00:04:50.928Z,2.00
2023-01-06T00:08:55.254Z,2.03
2023-01-06T00:12:57.042Z,2.05
2023-01-06T00:16:59.000Z,1.93
2023-01-06T00:21:02.038Z,1.91
2023-01-06T00:25:04.017Z,1.81
2023-01-06T00:29:06.076Z,1.92
2023-01-06T00:33:08.711Z,1.91
2023-01-06T00:37:11.078Z,1.98
2023-01-06T00:41:32.951Z,1.88
2023-01-06T00:45:35.533Z,1.98
2023-01-06T00:49:37.455Z,1.96
2023-01-06T00:53:40.833Z,1.84
2023-01-06T00:57:42.541Z,1.91
2023-01-06T01:01:46.268Z,1.86
2023-01-06T01:05:48.119Z,1.87
2023-01-06T01:09:50.176Z,1.90
2023-01-06T01:13:51.848Z,2.01
2023-01-06T01:17:53.859Z,1.89
2023-01-06T01:21:55.459Z,1.73
2023-01-06T01:25:57.875Z,1.82
2023-01-06T01:29:59.563Z,1.81
2023-01-06T01:34:02.066Z,1.71
2023-01-06T01:38:03.910Z,1.93
2023-01-06T01:42:10.698Z,1.82
2023-01-06T01:46:14.814Z,1.73
2023-01-06T01:50:21.845Z,1.63
2023-01-06T01:54:28.565Z,1.69
2023-01-06T01:58:36.714Z,1.66
2023-01-06T02:02:39.134Z,1.51
2023-01-06T02:06:41.693Z,1.66
2023-01-06T02:10:44.140Z,1.53
2023-01-06T02:14:46.162Z,1.40
2023-01-06T02:19:18.331Z,1.45
2023-01-06T02:23:23.092Z,1.32
2023-01-06T02:27:45.727Z,1.40
2023-01-06T02:32:27.300Z,1.38
2023-01-06T02:36:45.990Z,1.28
2023-01-06T02:41:13.880Z,1.38
2023-01-06T02:45:35.596Z,1.23
2023-01-06T02:50:00.419Z,1.34
2023-01-06T02:54:14.613Z,1.29
2023-01-06T02:58:35.094Z,1.32
2023-01-06T03:02:45.525Z,1.30
2023-01-06T03:06:50.543Z,1.16
2023-01-06T03:10:55.140Z,0.69
2023-01-06T03:14:58.869Z,0.73
2023-01-06T03:19:00.970Z,0.95
2023-01-06T03:23:03.494Z,1.05
2023-01-06T03:27:06.399Z,0.99
2023-01-06T03:31:13.019Z,0.97
2023-01-06T03:35:36.659Z,0.88
2023-01-06T03:40:05.445Z,0.87
2023-01-06T03:44:16.791Z,0.81
2023-01-06T03:48:56.229Z,0.82
2023-01-06T03:53:22.515Z,0.89
2023-01-06T03:57:48.853Z,0.77
2023-01-06T04:01:51.420Z,0.92
2023-01-06T04:05:55.492Z,0.87
2023-01-06T04:09:58.088Z,0.97
2023-01-06T04:14:00.878Z,0.93
2023-01-06T04:18:04.231Z,0.87
2023-01-06T04:22:09.941Z,0.92
2023-01-06T04:26:12.361Z,0.95
2023-01-06T04:30:21.209Z,0.92
2023-01-06T04:34:23.142Z,0.74
2023-01-06T04:38:25.339Z,0.77
2023-01-06T04:42:27.274Z,0.77
2023-01-06T04:46:29.266Z,0.79
2023-01-06T04:50:30.950Z,0.76
2023-01-06T04:54:32.926Z,0.70
2023-01-06T04:58:36.027Z,0.76
2023-01-06T05:02:38.008Z,0.83
2023-01-06T05:06:40.074Z,0.81
2023-01-06T05:10:42.055Z,0.81
2023-01-06T05:14:43.695Z,0.56
2023-01-06T05:18:46.012Z,0.76
2023-01-06T05:22:47.842Z,0.65
2023-01-06T05:26:49.775Z,0.70
2023-01-06T05:30:52.239Z,0.49
2023-01-06T05:34:54.243Z,0.57
2023-01-06T05:38:56.024Z,0.75
2023-01-06T05:42:58.689Z,0.81
2023-01-06T05:47:00.348Z,0.46
2023-01-06T05:51:08.260Z,0.84
2023-01-06T05:55:10.555Z,0.42
2023-01-06T05:59:12.560Z,0.47
2023-01-06T06:03:14.202Z,0.31
2023-01-06T06:07:16.335Z,0.25
2023-01-06T06:11:19.663Z,0.18
2023-01-06T06:15:21.801Z,0.20
2023-01-06T06:19:23.525Z,0.26
2023-01-06T06:23:25.771Z,0.20
2023-01-06T06:27:28.023Z,0.33
2023-01-06T06:31:30.073Z,0.40
2023-01-06T06:35:31.922Z,0.40
2023-01-06T06:39:33.877Z,0.09
2023-01-06T06:43:35.979Z,0.12
2023-01-06T06:47:37.794Z,0.16
2023-01-06T06:51:39.840Z,0.21
2023-01-06T06:55:41.778Z,0.27
2023-01-06T06:59:43.440Z,0.37
2023-01-06T07:03:45.968Z,0.47
2023-01-06T07:07:47.758Z,0.52
2023-01-06T07:11:49.732Z,0.55
2023-01-06T07:15:51.793Z,0.57
2023-01-06T07:19:53.477Z,0.47
2023-01-06T07:23:55.412Z,0.59
2023-01-06T07:27:59.277Z,0.36
2023-01-06T07:32:01.304Z,0.37
2023-01-06T07:36:03.346Z,0.32
2023-01-06T07:40:05.936Z,0.45
2023-01-06T07:44:07.627Z,0.26
2023-01-06T07:48:10.045Z,0.40
2023-01-06T07:52:11.706Z,0.08
2023-01-06T07:56:14.459Z,0.40
2023-01-06T08:00:16.534Z,0.51
2023-01-06T08:04:18.238Z,0.65
2023-01-06T08:08:20.214Z,0.61
2023-01-06T08:12:21.983Z,0.71
2023-01-06T08:16:23.936Z,0.88
2023-01-06T08:20:25.634Z,1.11
2023-01-06T08:24:31.708Z,1.08
2023-01-06T08:28:33.863Z,1.16
2023-01-06T08:32:35.843Z,1.08
2023-01-06T08:36:38.691Z,1.05
2023-01-06T08:40:41.438Z,0.96
2023-01-06T08:44:43.131Z,0.97
2023-01-06T08:48:46.247Z,1.08
2023-01-06T08:52:48.355Z,1.22
2023-01-06T08:56:50.387Z,1.26
2023-01-06T09:00:52.230Z,1.31
2023-01-06T09:04:54.263Z,1.34
2023-01-06T09:08:57.072Z,1.47
2023-01-06T09:12:59.220Z,1.32
2023-01-06T09:17:01.256Z,1.20
2023-01-06T09:21:03.681Z,1.46
2023-01-06T09:25:06.255Z,1.48
2023-01-06T09:29:08.396Z,1.37
2023-01-06T09:33:10.307Z,1.36
2023-01-06T09:37:11.955Z,1.39
2023-01-06T09:41:37.637Z,1.52
2023-01-06T09:45:48.688Z,1.44
2023-01-06T09:49:57.464Z,1.41
2023-01-06T09:54:15.645Z,1.41
2023-01-06T09:58:21.961Z,1.54
2023-01-06T10:02:36.913Z,1.59
2023-01-06T10:06:48.590Z,1.65
2023-01-06T10:11:03.580Z,1.50
2023-01-06T10:15:14.774Z,1.68
2023-01-06T10:19:28.392Z,1.64
2023-01-06T10:23:47.715Z,1.42
2023-01-06T10:28:08.972Z,1.21
2023-01-06T10:32:16.568Z,1.17
2023-01-06T10:36:29.154Z,1.36
2023-01-06T10:40:32.225Z,1.36
2023-01-06T10:44:34.240Z,1.43
2023-01-06T10:48:36.329Z,1.35
2023-01-06T10:52:38.761Z,1.50
2023-01-06T10:56:45.670Z,1.45
2023-01-06T11:01:11.860Z,1.12
2023-01-06T11:05:16.154Z,1.20
2023-01-06T11:09:41.142Z,1.23
2023-01-06T11:13:49.696Z,1.29
2023-01-06T11:17:51.754Z,1.15
2023-01-06T11:21:53.797Z,1.10
2023-01-06T11:26:03.798Z,1.25
2023-01-06T11:30:27.423Z,0.98
2023-01-06T11:34:29.805Z,1.42
2023-01-06T11:38:31.630Z,1.45
2023-01-06T11:42:33.806Z,1.30
2023-01-06T11:46:37.691Z,1.13
2023-01-06T11:50:39.765Z,1.30
2023-01-06T11:54:42.426Z,1.21
2023-01-06T11:59:03.463Z,1.20
2023-01-06T12:03:10.864Z,1.22
2023-01-06T12:07:38.689Z,1.21
2023-01-06T12:11:47.891Z,1.17
2023-01-06T12:16:00.001Z,0.84
2023-01-06T12:20:05.807Z,1.12
2023-01-06T12:24:10.220Z,0.85
2023-01-06T12:28:28.714Z,1.23
2023-01-06T12:32:40.935Z,1.11
2023-01-06T12:36:57.205Z,1.30
2023-01-06T12:41:17.050Z,1.20
2023-01-06T12:45:28.996Z,1.12
2023-01-06T12:49:40.100Z,1.24
2023-01-06T12:53:47.869Z,1.38
2023-01-06T12:57:58.115Z,1.36
2023-01-06T13:02:18.619Z,1.28
2023-01-06T13:06:37.155Z,1.38
2023-01-06T13:11:16.511Z,1.03
2023-01-06T13:15:34.212Z,1.00
2023-01-06T13:19:41.679Z,1.44
2023-01-06T13:24:17.746Z,1.43
2023-01-06T13:28:37.303Z,1.49
2023-01-06T13:33:08.276Z,1.65
2023-01-06T13:37:37.192Z,1.51
2023-01-06T13:41:41.254Z,1.36
2023-01-06T13:45:48.283Z,1.41
2023-01-06T13:49:50.771Z,1.50
2023-01-06T13:53:54.732Z,1.32
2023-01-06T13:57:58.903Z,1.45
2023-01-06T14:02:00.970Z,1.48
2023-01-06T14:06:03.864Z,1.53
2023-01-06T14:10:27.162Z,1.56
2023-01-06T14:14:38.533Z,1.58
2023-01-06T14:18:47.203Z,1.60
2023-01-06T14:23:05.905Z,1.49
2023-01-06T14:27:12.015Z,1.45
2023-01-06T14:31:26.467Z,1.45
2023-01-06T14:35:44.007Z,1.52
2023-01-06T14:39:48.850Z,1.51
2023-01-06T14:44:26.192Z,1.53
2023-01-06T14:48:32.447Z,1.44
2023-01-06T14:52:47.770Z,1.37
2023-01-06T14:56:54.959Z,1.06
2023-01-06T15:00:57.104Z,0.99
2023-01-06T15:04:59.474Z,0.70
2023-01-06T15:09:17.477Z,0.95
2023-01-06T15:13:22.999Z,1.13
2023-01-06T15:17:24.699Z,1.17
2023-01-06T15:21:27.577Z,0.96
2023-01-06T15:25:32.765Z,0.94
2023-01-06T15:29:35.564Z,0.93
2023-01-06T15:33:40.013Z,0.93
2023-01-06T15:37:43.361Z,0.93
2023-01-06T15:41:45.275Z,0.88
2023-01-06T15:45:59.946Z,1.01
2023-01-06T15:50:05.624Z,0.99
2023-01-06T15:54:13.760Z,0.97
2023-01-06T15:58:27.502Z,0.98
2023-01-06T16:02:31.156Z,0.84
2023-01-06T16:06:37.116Z,0.89
2023-01-06T16:10:39.308Z,0.84
2023-01-06T16:14:46.065Z,0.93
2023-01-06T16:18:48.241Z,0.88
2023-01-06T16:22:55.065Z,0.89
2023-01-06T16:27:04.387Z,0.89
2023-01-06T16:31:12.263Z,0.92
2023-01-06T16:35:18.198Z,0.91
2023-01-06T16:39:20.008Z,0.92
2023-01-06T16:43:22.011Z,0.61
2023-01-06T16:47:23.696Z,0.62
2023-01-06T16:51:28.928Z,0.74
2023-01-06T16:55:31.423Z,0.70
2023-01-06T16:59:36.301Z,0.66
2023-01-06T17:03:38.636Z,0.64
2023-01-06T17:07:40.605Z,0.55
2023-01-06T17:11:42.369Z,0.53
2023-01-06T17:15:44.844Z,0.55
2023-01-06T17:19:46.641Z,0.56
2023-01-06T17:23:56.838Z,0.48
2023-01-06T17:27:58.692Z,0.48
2023-01-06T17:32:02.977Z,0.14
2023-01-06T17:36:06.148Z,-0.10
2023-01-06T17:40:16.988Z,0.13
2023-01-06T17:44:27.477Z,-0.01
2023-01-06T17:48:29.509Z,0.02
2023-01-06T17:52:37.529Z,-0.02
2023-01-06T17:56:39.637Z,-0.01
2023-01-06T18:00:41.540Z,0.02
2023-01-06T18:04:43.656Z,0.02
2023-01-06T18:08:46.768Z,0.01
2023-01-06T18:12:48.796Z,-0.04
2023-01-06T18:16:54.298Z,-0.05
2023-01-06T18:21:00.872Z,-0.03
2023-01-06T18:25:02.915Z,0.03
2023-01-06T18:29:19.503Z,-0.03
2023-01-06T18:33:21.589Z,-0.06
2023-01-06T18:37:27.767Z,-0.01
2023-01-06T18:41:29.456Z,0.04
2023-01-06T18:45:36.107Z,-0.02
2023-01-06T18:49:38.295Z,-0.16
2023-01-06T18:53:43.420Z,-0.10
2023-01-06T18:57:51.150Z,-0.10
2023-01-06T19:01:53.603Z,-0.01
2023-01-06T19:06:10.543Z,-0.01
2023-01-06T19:10:32.626Z,0.02
2023-01-06T19:14:48.231Z,0.01
2023-01-06T19:18:49.966Z,0.10
2023-01-06T19:22:55.123Z,0.12
2023-01-06T19:26:58.916Z,0.13
2023-01-06T19:31:03.000Z,0.18
2023-01-06T19:35:23.800Z,0.20
2023-01-06T19:39:30.780Z,0.20
2023-01-06T19:43:34.890Z,0.21
2023-01-06T19:47:39.130Z,0.28
2023-01-06T19:51:41.137Z,0.26
2023-01-06T19:55:43.107Z,0.21
2023-01-06T19:59:44.855Z,0.18
2023-01-06T20:03:48.686Z,0.26
2023-01-06T20:07:50.466Z,0.20
2023-01-06T20:11:52.489Z,0.21
2023-01-06T20:15:54.259Z,0.28
2023-01-06T20:19:56.361Z,0.29
2023-01-06T20:23:58.562Z,0.20
2023-01-06T20:28:00.588Z,0.18
2023-01-06T20:32:02.412Z,0.17
2023-01-06T20:36:04.979Z,0.05
2023-01-06T20:40:07.693Z,0.11
2023-01-06T20:44:09.730Z,0.06
2023-01-06T20:48:11.469Z,0.03
2023-01-06T20:52:13.496Z,0.16
2023-01-06T20:56:15.378Z,0.12
2023-01-06T21:00:17.797Z,0.21
2023-01-06T21:04:19.574Z,0.20
2023-01-06T21:08:21.616Z,0.22
2023-01-06T21:12:23.387Z,0.25
2023-01-06T21:16:25.476Z,0.21
2023-01-06T21:20:27.269Z,0.20
2023-01-06T21:24:29.374Z,0.17
2023-01-06T21:28:31.120Z,0.26
2023-01-06T21:32:33.043Z,0.25
2023-01-06T21:36:34.794Z,0.07
2023-01-06T21:40:36.845Z,0.33
2023-01-06T21:44:38.549Z,0.37
2023-01-06T21:48:40.460Z,0.29
2023-01-06T21:52:43.419Z,0.34
2023-01-06T21:56:45.574Z,0.40
2023-01-06T22:00:47.210Z,0.13
2023-01-06T22:04:51.608Z,0.17
2023-01-06T22:08:54.407Z,0.34
2023-01-06T22:12:59.162Z,0.55
2023-01-06T22:17:01.270Z,0.56
2023-01-06T22:21:03.567Z,0.65
2023-01-06T22:25:06.317Z,0.70
2023-01-06T22:29:08.359Z,0.67
2023-01-06T22:33:10.132Z,0.69
2023-01-06T22:37:12.203Z,0.69
2023-01-06T22:41:14.023Z,0.75
2023-01-06T22:45:16.177Z,0.74
2023-01-06T22:49:17.893Z,0.72
2023-01-06T22:53:19.839Z,0.81
2023-01-06T22:57:21.601Z,0.81
2023-01-06T23:01:23.979Z,0.65
2023-01-06T23:05:25.835Z,0.50
2023-01-06T23:09:27.772Z,0.54
2023-01-06T23:13:30.639Z,0.41
2023-01-06T23:17:32.984Z,0.56
2023-01-06T23:21:35.211Z,0.71
2023-01-06T23:25:37.225Z,0.63
2023-01-06T23:29:38.966Z,0.73
2023-01-06T23:33:43.663Z,0.74
2023-01-06T23:37:45.413Z,0.70
2023-01-06T23:41:48.425Z,0.71
2023-01-06T23:45:50.127Z,0.86
2023-01-06T23:49:52.091Z,0.88
2023-01-06T23:53:54.059Z,0.92
2023-01-06T23:57:55.756Z,0.95
